Time;durP1;ratioP1;P1;durP2;ratioP2;P2;SDS_P1;SDS_P2;PMS_P1;PMS_P2;Temp;Humidity;BMP_temperature;BMP_pressure;BME280_temperature;BME280_humidity;BME280_pressure;Samples;Min_cycle;Max_cycle;Signal;HPM_P1;HPM_P2
2023/01/07 05:02:37;;;;;;;6.97;4.97;;;8.80;99.90;;;;;;4898917;29;20266;-66
2023/01/07 05:05:05;;;;;;;14.25;6.22;;;8.90;99.90;;;;;;4895067;29;20325;-66
2023/01/07 05:07:32;;;;;;;9.05;5.57;;;8.90;99.90;;;;;;4908844;29;20220;-66
2023/01/07 05:09:59;;;;;;;7.25;5.80;;;8.90;99.90;;;;;;4909017;29;20266;-66
2023/01/07 05:12:25;;;;;;;6.88;5.95;;;8.90;99.90;;;;;;4893392;29;20231;-66
2023/01/07 05:14:52;;;;;;;10.63;5.93;;;8.90;99.90;;;;;;4893566;29;20212;-65
2023/01/07 05:17:19;;;;;;;9.50;5.93;;;8.90;99.90;;;;;;4921692;23;20287;-68
2023/01/07 05:19:47;;;;;;;8.75;5.82;;;8.90;99.90;;;;;;4899060;29;20561;-68
2023/01/07 05:22:13;;;;;;;9.05;7.63;;;9.00;99.90;;;;;;4914868;29;20221;-69
2023/01/07 05:24:40;;;;;;;7.78;5.28;;;9.00;99.90;;;;;;4898075;29;20835;-70
2023/01/07 05:27:07;;;;;;;9.15;6.03;;;9.00;99.90;;;;;;4914252;29;20249;-68
2023/01/07 05:29:33;;;;;;;8.88;6.15;;;9.00;99.90;;;;;;4910957;29;20220;-69
2023/01/07 05:32:00;;;;;;;10.10;5.00;;;9.00;99.90;;;;;;4910993;29;20224;-70
2023/01/07 05:34:27;;;;;;;10.50;7.53;;;9.00;99.90;;;;;;4907569;29;20213;-68
2023/01/07 05:36:55;;;;;;;5.63;5.18;;;9.10;99.90;;;;;;4908338;29;20328;-70
2023/01/07 05:39:22;;;;;;;9.65;5.32;;;9.10;99.90;;;;;;4916863;29;20201;-69
2023/01/07 05:41:48;;;;;;;5.90;5.47;;;9.10;99.90;;;;;;4916490;29;20553;-70
2023/01/07 05:44:15;;;;;;;5.03;4.38;;;9.10;99.90;;;;;;4912866;29;20217;-68
2023/01/07 05:46:42;;;;;;;4.53;3.50;;;9.20;99.90;;;;;;4910891;29;20241;-71
2023/01/07 05:49:09;;;;;;;6.15;5.63;;;9.10;99.90;;;;;;4913948;29;20598;-69
2023/01/07 05:51:36;;;;;;;5.65;5.13;;;9.20;99.90;;;;;;4905758;29;20213;-70
2023/01/07 05:54:04;;;;;;;5.82;4.22;;;9.20;99.90;;;;;;4914040;29;20713;-70
2023/01/07 05:56:30;;;;;;;10.48;4.70;;;9.20;99.90;;;;;;4911727;29;20234;-70
2023/01/07 05:58:57;;;;;;;6.30;5.75;;;9.20;99.90;;;;;;4909295;29;20218;-68
2023/01/07 06:01:24;;;;;;;9.38;6.72;;;9.30;99.90;;;;;;4908644;29;20698;-69
2023/01/07 06:03:50;;;;;;;5.63;3.72;;;9.30;99.90;;;;;;4913589;29;20343;-69
2023/01/07 06:06:17;;;;;;;6.15;4.05;;;9.30;99.90;;;;;;4912478;29;20238;-69
2023/01/07 06:08:44;;;;;;;5.00;4.13;;;9.30;99.90;;;;;;4915884;29;20577;-69
2023/01/07 06:11:12;;;;;;;5.10;4.70;;;9.30;99.90;;;;;;4915125;29;20214;-70
2023/01/07 06:13:39;;;;;;;6.43;5.45;;;9.30;99.90;;;;;;4907669;29;20214;-69
2023/01/07 06:16:08;;;;;;;8.38;5.20;;;9.30;99.90;;;;;;4913368;29;20712;-68
2023/01/07 06:18:35;;;;;;;7.60;4.55;;;9.30;99.90;;;;;;4903402;29;20214;-69
2023/01/07 06:21:03;;;;;;;7.40;5.65;;;9.30;99.90;;;;;;4906517;29;20209;-69
2023/01/07 06:23:30;;;;;;;5.30;4.93;;;9.30;99.90;;;;;;4912469;29;20667;-69
2023/01/07 06:25:56;;;;;;;6.00;4.68;;;9.30;99.90;;;;;;4911947;29;20237;-68
2023/01/07 06:28:24;;;;;;;4.75;4.13;;;9.30;99.90;;;;;;4905404;29;20207;-68
2023/01/07 06:30:51;;;;;;;3.75;3.30;;;9.40;99.90;;;;;;4909550;29;20320;-69
2023/01/07 06:33:18;;;;;;;7.07;5.35;;;9.40;99.90;;;;;;4913468;29;20215;-68
2023/01/07 06:35:45;;;;;;;5.13;4.32;;;9.30;99.90;;;;;;4907361;29;20210;-68
2023/01/07 06:38:12;;;;;;;7.00;4.50;;;9.40;99.90;;;;;;4913891;29;20213;-68
2023/01/07 06:40:39;;;;;;;3.83;3.28;;;9.40;99.90;;;;;;4908824;29;20212;-68
2023/01/07 06:43:06;;;;;;;11.20;6.38;;;9.40;99.90;;;;;;4908781;29;20218;-68
2023/01/07 06:45:34;;;;;;;7.10;4.40;;;9.40;99.90;;;;;;4914866;29;20233;-69
2023/01/07 06:48:01;;;;;;;6.30;3.75;;;9.50;99.90;;;;;;4910345;29;20205;-68
2023/01/07 06:50:28;;;;;;;7.88;4.90;;;9.50;99.90;;;;;;4902688;29;20209;-68
2023/01/07 06:52:55;;;;;;;6.70;5.22;;;9.50;99.90;;;;;;4914374;29;20227;-70
2023/01/07 06:55:22;;;;;;;8.10;5.55;;;9.50;99.90;;;;;;4912950;29;20208;-69
2023/01/07 06:57:49;;;;;;;4.07;3.65;;;9.50;99.90;;;;;;4914501;29;20233;-68
2023/01/07 07:00:16;;;;;;;4.82;4.40;;;9.50;99.90;;;;;;4913219;29;20229;-69
2023/01/07 07:02:44;;;;;;;3.75;2.50;;;9.50;99.90;;;;;;4902814;29;20217;-69
2023/01/07 07:05:11;;;;;;;5.20;4.07;;;9.50;99.90;;;;;;4913298;29;20314;-70
2023/01/07 07:07:37;;;;;;;4.57;4.10;;;9.50;99.90;;;;;;4915639;29;20237;-68
2023/01/07 07:10:06;;;;;;;6.22;3.78;;;9.50;99.90;;;;;;4913101;29;20243;-68
2023/01/07 07:12:33;;;;;;;4.28;3.92;;;9.50;99.90;;;;;;4909048;29;20214;-69
2023/01/07 07:14:59;;;;;;;4.93;3.88;;;9.50;99.90;;;;;;4905399;29;20243;-68
2023/01/07 07:17:26;;;;;;;8.55;4.57;;;9.50;99.90;;;;;;4898609;29;20257;-69
2023/01/07 07:19:54;;;;;;;4.05;3.15;;;9.60;99.90;;;;;;4905798;29;20219;-69
2023/01/07 07:22:21;;;;;;;3.78;3.38;;;9.60;99.90;;;;;;4915014;29;20225;-69
2023/01/07 07:24:48;;;;;;;5.57;4.25;;;9.60;99.90;;;;;;4907754;29;20241;-68
2023/01/07 07:27:15;;;;;;;4.50;3.97;;;9.60;99.90;;;;;;4904228;29;20239;-69
2023/01/07 07:29:42;;;;;;;4.22;3.78;;;9.60;99.90;;;;;;4914727;29;20216;-68
2023/01/07 07:32:08;;;;;;;5.20;4.80;;;9.60;99.90;;;;;;4900134;29;20213;-69
2023/01/07 07:34:36;;;;;;;6.57;3.95;;;9.50;99.90;;;;;;4913027;29;20218;-70
2023/01/07 07:37:04;;;;;;;3.97;3.67;;;9.50;99.90;;;;;;4907525;29;20245;-70
2023/01/07 07:39:30;;;;;;;7.90;4.60;;;9.50;99.90;;;;;;4913112;29;20217;-69
2023/01/07 07:41:57;;;;;;;5.53;4.35;;;9.60;99.90;;;;;;4912953;29;20664;-69
2023/01/07 07:44:24;;;;;;;7.45;5.13;;;9.60;99.90;;;;;;4909660;29;20216;-68
2023/01/07 07:46:51;;;;;;;7.15;4.22;;;9.60;99.90;;;;;;4911372;29;20239;-69
2023/01/07 07:49:17;;;;;;;11.40;4.53;;;9.60;99.90;;;;;;4902675;29;20695;-69
2023/01/07 07:51:44;;;;;;;4.85;3.95;;;9.60;99.90;;;;;;4911866;29;20214;-68
2023/01/07 07:54:12;;;;;;;5.93;3.75;;;9.70;99.90;;;;;;4905637;29;20214;-70
2023/01/07 07:56:39;;;;;;;8.95;5.05;;;9.70;99.90;;;;;;4910082;29;20224;-70
2023/01/07 07:59:05;;;;;;;11.07;4.63;;;9.70;99.90;;;;;;4912082;29;20222;-69
2023/01/07 08:01:32;;;;;;;4.07;3.78;;;9.60;99.90;;;;;;4907589;29;20210;-70
2023/01/07 08:03:59;;;;;;;10.60;5.18;;;9.70;99.90;;;;;;4911882;29;20213;-69
2023/01/07 08:06:25;;;;;;;5.93;4.15;;;9.70;99.90;;;;;;4910305;29;20230;-71
2023/01/07 08:08:52;;;;;;;5.95;4.72;;;9.70;99.90;;;;;;4914784;29;20283;-70
2023/01/07 08:11:21;;;;;;;5.07;4.35;;;9.70;99.90;;;;;;4914755;29;20210;-69
2023/01/07 08:13:47;;;;;;;5.72;5.20;;;9.70;99.90;;;;;;4932331;29;20233;-69
2023/01/07 08:16:14;;;;;;;4.72;3.80;;;9.80;99.90;;;;;;4915555;29;20246;-71
2023/01/07 08:18:42;;;;;;;5.07;4.53;;;9.80;99.90;;;;;;4919612;29;20216;-69
2023/01/07 08:21:08;;;;;;;4.78;3.40;;;9.80;99.90;;;;;;4915798;29;20225;-70
2023/01/07 08:23:35;;;;;;;2.97;2.70;;;9.80;99.90;;;;;;4914541;29;20222;-69
2023/01/07 08:26:02;;;;;;;3.92;3.63;;;9.80;99.90;;;;;;4910047;29;20234;-69
2023/01/07 08:28:31;;;;;;;6.15;3.00;;;9.80;99.90;;;;;;4921987;29;20209;-69
2023/01/07 08:31:00;;;;;;;3.88;3.38;;;9.80;99.90;;;;;;4926328;29;20245;-70
2023/01/07 08:33:27;;;;;;;3.72;2.70;;;9.80;99.90;;;;;;4908855;29;20241;-69
2023/01/07 08:35:54;;;;;;;3.38;3.20;;;9.80;99.90;;;;;;4913472;29;20224;-69
2023/01/07 08:38:21;;;;;;;5.07;3.50;;;9.80;99.90;;;;;;4911828;29;20211;-70
2023/01/07 08:40:49;;;;;;;4.22;3.00;;;9.80;99.90;;;;;;4912918;29;20209;-67
2023/01/07 08:43:15;;;;;;;3.22;2.20;;;9.80;99.90;;;;;;4912364;29;20302;-69
2023/01/07 08:45:48;;;;;;;2.30;1.80;;;9.80;99.90;;;;;;4901695;29;20581;-70
2023/01/07 08:48:15;;;;;;;2.72;2.47;;;9.90;99.90;;;;;;4918435;29;20214;-70
2023/01/07 08:50:41;;;;;;;2.53;2.35;;;9.90;99.90;;;;;;4920870;29;20221;-69
2023/01/07 08:53:08;;;;;;;3.38;2.50;;;9.90;99.90;;;;;;4917967;29;20211;-69
2023/01/07 08:55:35;;;;;;;2.35;2.15;;;9.80;99.90;;;;;;4930065;29;20271;-69
2023/01/07 08:58:02;;;;;;;4.18;3.38;;;9.90;99.90;;;;;;4927886;29;20277;-68
2023/01/07 09:00:29;;;;;;;2.22;2.13;;;9.90;99.90;;;;;;4930930;29;20217;-71
2023/01/07 09:02:57;;;;;;;2.40;2.28;;;9.90;99.90;;;;;;4929253;29;20298;-71
2023/01/07 09:05:24;;;;;;;5.50;3.00;;;9.90;99.90;;;;;;4926443;29;20198;-70
2023/01/07 09:07:52;;;;;;;6.78;2.35;;;9.90;99.90;;;;;;4916507;29;20241;-68
2023/01/07 09:10:19;;;;;;;5.57;2.50;;;9.90;99.90;;;;;;4925191;29;20246;-69
2023/01/07 09:12:45;;;;;;;18.98;11.15;;;10.00;99.90;;;;;;4931246;29;20267;-70
2023/01/07 09:15:12;;;;;;;12.43;7.57;;;10.00;99.90;;;;;;4931143;29;20214;-70
2023/01/07 09:17:39;;;;;;;5.68;5.07;;;10.00;99.90;;;;;;4931396;29;20242;-68
2023/01/07 09:20:08;;;;;;;5.47;4.35;;;10.00;99.90;;;;;;4913751;29;20216;-71
2023/01/07 09:22:37;;;;;;;2.75;2.55;;;10.10;99.90;;;;;;4925896;29;20208;-70
2023/01/07 09:25:04;;;;;;;23.50;12.77;;;10.10;99.90;;;;;;4923732;29;20218;-70
2023/01/07 09:27:32;;;;;;;31.15;15.07;;;10.10;99.90;;;;;;4916803;29;20575;-72
2023/01/07 09:29:58;;;;;;;8.05;6.25;;;10.10;99.90;;;;;;4919135;29;20208;-66
2023/01/07 09:32:25;;;;;;;15.48;4.63;;;10.10;99.90;;;;;;4924394;29;20285;-70
2023/01/07 09:34:52;;;;;;;13.88;8.05;;;10.10;99.90;;;;;;4925423;29;20221;-71
2023/01/07 09:37:20;;;;;;;9.20;7.03;;;10.10;99.90;;;;;;4923873;29;20237;-70
2023/01/07 09:39:47;;;;;;;13.00;8.07;;;10.10;99.90;;;;;;4917179;29;20676;-69
2023/01/07 09:42:24;;;;;;;3.70;2.05;;;10.10;99.90;;;;;;4923014;29;20218;-71
2023/01/07 09:45:03;;;;;;;5.97;5.05;;;10.20;99.90;;;;;;4924809;29;20319;-71
2023/01/07 09:47:35;;;;;;;5.93;4.82;;;10.20;99.90;;;;;;4920213;29;20247;-68
2023/01/07 09:50:07;;;;;;;4.55;4.13;;;10.20;99.90;;;;;;4921823;29;20265;-71
2023/01/07 09:52:38;;;;;;;6.53;3.53;;;10.20;99.90;;;;;;4921115;29;20213;-69
2023/01/07 09:55:11;;;;;;;8.43;4.50;;;10.20;99.90;;;;;;4923537;29;20216;-71
2023/01/07 09:57:38;;;;;;;5.57;4.57;;;10.20;99.90;;;;;;4916146;29;20230;-71
2023/01/07 10:00:14;;;;;;;11.65;7.00;;;10.20;99.90;;;;;;4913775;29;20310;-70
2023/01/07 10:02:54;;;;;;;11.57;6.20;;;10.20;99.90;;;;;;4913192;29;20219;-70
2023/01/07 10:05:31;;;;;;;7.65;6.95;;;10.20;99.90;;;;;;4911772;29;20318;-71
2023/01/07 10:08:08;;;;;;;18.80;9.38;;;10.20;99.90;;;;;;4925916;29;20283;-70
2023/01/07 10:10:44;;;;;;;5.78;3.42;;;10.20;99.90;;;;;;4913696;29;20739;-71
2023/01/07 10:13:28;;;;;;;2.95;2.85;;;10.20;99.90;;;;;;4928750;29;20675;-70
2023/01/07 10:16:00;;;;;;;3.30;3.10;;;10.30;99.90;;;;;;4920343;29;20241;-70
2023/01/07 10:18:38;;;;;;;3.22;2.97;;;10.40;99.90;;;;;;4922163;29;20733;-71
2023/01/07 10:21:14;;;;;;;2.22;2.13;;;10.40;99.90;;;;;;4926591;29;20243;-69
2023/01/07 10:23:45;;;;;;;8.15;4.75;;;10.50;99.90;;;;;;4929405;29;20276;-72
2023/01/07 10:26:18;;;;;;;3.72;3.20;;;10.50;99.90;;;;;;4925770;29;20232;-71
2023/01/07 10:28:51;;;;;;;6.93;5.55;;;10.50;99.90;;;;;;4923698;29;20220;-71
2023/01/07 10:31:22;;;;;;;4.28;3.88;;;10.50;99.90;;;;;;4913999;29;20676;-69
2023/01/07 10:33:50;;;;;;;6.20;3.53;;;10.50;99.90;;;;;;4927959;29;20214;-68
2023/01/07 10:36:22;;;;;;;3.05;2.85;;;10.50;99.90;;;;;;4921482;29;20255;-72
2023/01/07 10:39:02;;;;;;;2.72;2.53;;;10.40;99.90;;;;;;4930824;29;20222;-73
2023/01/07 10:41:39;;;;;;;2.70;2.47;;;10.40;99.90;;;;;;4926760;29;20228;-69
2023/01/07 10:44:47;;;;;;;3.00;1.88;;;10.50;99.90;;;;;;4922999;29;20279;-70
2023/01/07 10:47:27;;;;;;;4.00;3.80;;;10.40;99.90;;;;;;4888013;29;20268;-69
2023/01/07 10:50:23;;;;;;;1.77;1.67;;;10.50;99.90;;;;;;4922418;29;20217;-70
2023/01/07 10:52:57;;;;;;;8.20;5.43;;;10.50;99.90;;;;;;4917780;29;20671;-70
2023/01/07 10:55:39;;;;;;;3.10;2.38;;;10.60;99.90;;;;;;4915094;29;20213;-70
2023/01/07 10:58:09;;;;;;;1.60;1.50;;;10.60;99.90;;;;;;4930647;29;20676;-72
2023/01/07 11:00:36;;;;;;;3.47;3.17;;;10.60;99.90;;;;;;4930785;29;20226;-71
2023/01/07 11:03:04;;;;;;;4.38;2.47;;;10.70;99.90;;;;;;4932766;29;20234;-71
2023/01/07 11:05:36;;;;;;;2.70;2.50;;;10.70;99.90;;;;;;4929048;29;20333;-70
2023/01/07 11:08:04;;;;;;;10.45;7.63;;;10.80;99.90;;;;;;4925370;29;20224;-70
2023/01/07 11:10:37;;;;;;;9.65;5.97;;;10.80;99.90;;;;;;4928204;29;20211;-68
2023/01/07 11:13:13;;;;;;;5.38;4.20;;;10.90;99.90;;;;;;4926774;29;20205;-71
2023/01/07 11:15:44;;;;;;;8.45;5.57;;;11.00;99.90;;;;;;4918311;29;20216;-70
2023/01/07 11:18:16;;;;;;;6.25;5.32;;;11.00;99.90;;;;;;4927375;23;20246;-66
2023/01/07 11:20:48;;;;;;;5.13;2.25;;;11.00;99.90;;;;;;4916108;29;20215;-66
2023/01/07 11:23:28;;;;;;;8.20;5.30;;;11.10;99.90;;;;;;4909723;29;20529;-65
2023/01/07 11:26:09;;;;;;;2.88;2.67;;;11.10;99.90;;;;;;4904757;29;20311;-67
2023/01/07 11:28:40;;;;;;;6.22;5.43;;;11.10;99.90;;;;;;4903183;29;20268;-65
2023/01/07 11:31:07;;;;;;;7.70;2.75;;;11.10;99.90;;;;;;4906384;29;20213;-66
2023/01/07 11:33:39;;;;;;;3.03;2.58;;;11.00;99.90;;;;;;4903091;29;20239;-64
2023/01/07 11:36:07;;;;;;;2.92;2.72;;;11.00;99.90;;;;;;4906980;29;20216;-65
2023/01/07 11:38:35;;;;;;;8.18;6.32;;;11.00;99.90;;;;;;4904220;29;20213;-65
2023/01/07 11:41:06;;;;;;;2.63;2.42;;;11.00;99.90;;;;;;4908028;29;20573;-65
2023/01/07 11:43:34;;;;;;;4.90;2.50;;;11.00;99.90;;;;;;4908689;29;20277;-64
2023/01/07 11:46:03;;;;;;;3.88;2.60;;;11.00;99.90;;;;;;4902432;29;20213;-65
2023/01/07 11:48:32;;;;;;;4.32;3.95;;;11.00;99.90;;;;;;4911951;29;20241;-66
2023/01/07 11:51:00;;;;;;;5.63;4.85;;;11.00;99.90;;;;;;4910404;29;20303;-65
2023/01/07 11:53:34;;;;;;;1.67;1.65;;;11.00;99.90;;;;;;4899943;29;20225;-66
2023/01/07 11:56:05;;;;;;;3.38;2.78;;;11.00;99.90;;;;;;4910475;29;20693;-66
2023/01/07 11:58:37;;;;;;;2.65;2.33;;;11.10;99.90;;;;;;4906276;29;20200;-67
2023/01/07 12:01:13;;;;;;;3.60;1.90;;;11.00;99.90;;;;;;4902102;29;20213;-65
2023/01/07 12:03:42;;;;;;;2.20;2.05;;;11.10;99.90;;;;;;4909827;29;20224;-65
2023/01/07 12:06:19;;;;;;;1.48;1.42;;;11.00;99.90;;;;;;4910002;29;20243;-65
2023/01/07 12:08:55;;;;;;;1.77;1.70;;;11.00;99.90;;;;;;4905007;29;20594;-65
2023/01/07 12:11:31;;;;;;;1.10;1.10;;;11.00;99.90;;;;;;4907244;29;20856;-66
2023/01/07 12:14:07;;;;;;;1.42;1.42;;;11.00;99.90;;;;;;4902723;29;20212;-66
2023/01/07 12:16:34;;;;;;;1.90;1.90;;;11.00;99.90;;;;;;4910600;29;20263;-66
2023/01/07 12:19:17;;;;;;;1.33;1.23;;;10.90;99.90;;;;;;4908198;29;20621;-66
2023/01/07 12:21:53;;;;;;;0.82;0.82;;;10.90;99.90;;;;;;4910472;29;20211;-64
2023/01/07 12:24:57;;;;;;;0.95;0.95;;;10.90;99.90;;;;;;4905330;29;20302;-66
2023/01/07 12:27:34;;;;;;;1.17;0.95;;;10.90;99.90;;;;;;4910780;29;20779;-66
2023/01/07 12:30:19;;;;;;;0.88;0.88;;;11.00;99.90;;;;;;4911234;29;20207;-66
2023/01/07 12:32:57;;;;;;;1.00;1.00;;;11.00;99.90;;;;;;4913126;29;20209;-66
2023/01/07 12:35:27;;;;;;;0.98;0.90;;;11.00;99.90;;;;;;4904893;29;20204;-66
2023/01/07 12:37:58;;;;;;;0.75;0.75;;;10.90;99.90;;;;;;4908922;29;20238;-67
2023/01/07 12:40:32;;;;;;;1.25;1.23;;;11.00;99.90;;;;;;4914345;29;20205;-67
2023/01/07 12:43:09;;;;;;;1.52;1.23;;;10.90;99.90;;;;;;4912779;29;20265;-67
2023/01/07 12:45:41;;;;;;;0.32;0.32;;;10.90;99.90;;;;;;4907095;29;20208;-66
2023/01/07 12:48:16;;;;;;;1.60;1.40;;;10.90;99.90;;;;;;4904989;29;20572;-66
2023/01/07 12:50:47;;;;;;;0.75;0.40;;;10.90;99.90;;;;;;4902893;29;20268;-66
2023/01/07 12:53:20;;;;;;;1.08;1.08;;;10.90;99.90;;;;;;4908798;29;20208;-66
2023/01/07 12:55:52;;;;;;;1.05;1.05;;;10.80;99.90;;;;;;4913263;29;20223;-66
2023/01/07 12:58:32;;;;;;;1.02;1.02;;;10.90;99.90;;;;;;4911320;29;20234;-66
2023/01/07 13:01:05;;;;;;;0.80;0.80;;;10.80;99.90;;;;;;4894958;29;20714;-67
2023/01/07 13:03:44;;;;;;;2.25;1.98;;;10.80;99.90;;;;;;4905308;29;20665;-66
2023/01/07 13:06:16;;;;;;;4.97;3.50;;;10.90;99.90;;;;;;4895068;29;20251;-66
2023/01/07 13:08:50;;;;;;;5.72;4.85;;;10.90;99.90;;;;;;4899503;29;20251;-66
2023/01/07 13:12:41;;;;;;;2.25;1.88;;;10.90;99.90;;;;;;4905792;29;20216;-66
2023/01/07 13:14:17;;;;;;;5.03;4.55;;;10.90;99.90;;;;;;4902272;29;20221;-66
2023/01/07 13:16:43;;;;;;;6.28;5.70;;;10.90;99.90;;;;;;4913517;29;20290;-67
2023/01/07 13:19:10;;;;;;;3.15;2.28;;;10.90;99.90;;;;;;4907559;29;20583;-67
2023/01/07 13:21:38;;;;;;;5.57;3.60;;;10.90;99.90;;;;;;4906445;29;20211;-66
2023/01/07 13:24:23;;;;;;;7.05;3.65;;;10.90;99.90;;;;;;4911814;29;20586;-65
2023/01/07 13:27:00;;;;;;;4.72;2.25;;;11.00;99.90;;;;;;4903838;29;20243;-66
2023/01/07 13:29:43;;;;;;;3.78;2.80;;;11.00;99.90;;;;;;4908055;29;20224;-67
2023/01/07 13:32:32;;;;;;;3.22;3.03;;;11.00;99.90;;;;;;4906878;29;20207;-66
2023/01/07 13:35:16;;;;;;;11.98;6.45;;;11.00;99.90;;;;;;4902302;29;20214;-65
2023/01/07 13:38:01;;;;;;;2.45;2.30;;;11.00;99.90;;;;;;4910697;29;20231;-66
2023/01/07 13:40:47;;;;;;;16.20;7.55;;;11.00;99.90;;;;;;4912474;29;20213;-66
2023/01/07 13:43:29;;;;;;;3.47;3.22;;;11.00;99.90;;;;;;4914134;29;20300;-66
2023/01/07 13:46:00;;;;;;;3.92;2.45;;;11.10;99.90;;;;;;4914829;29;20211;-66
2023/01/07 13:48:27;;;;;;;4.32;3.28;;;11.10;99.90;;;;;;4907475;29;20230;-66
2023/01/07 13:50:58;;;;;;;9.93;5.97;;;11.00;99.90;;;;;;4913599;29;20752;-66
2023/01/07 13:53:45;;;;;;;4.30;2.28;;;11.00;99.90;;;;;;4912063;29;20359;-67
2023/01/07 13:56:45;;;;;;;24.15;12.10;;;11.00;99.90;;;;;;4902637;29;20220;-66
2023/01/07 13:59:46;;;;;;;1.90;1.20;;;11.00;99.90;;;;;;4911351;29;20208;-66
2023/01/07 14:02:20;;;;;;;6.60;4.53;;;11.00;99.90;;;;;;4900997;29;20216;-67
2023/01/07 14:04:50;;;;;;;1.35;1.35;;;10.90;99.90;;;;;;4910577;29;20207;-67
2023/01/07 14:07:17;;;;;;;2.30;2.10;;;10.90;99.90;;;;;;4910558;29;20238;-67
2023/01/07 14:09:46;;;;;;;1.52;1.42;;;10.90;99.90;;;;;;4911403;29;20235;-67
2023/01/07 14:12:47;;;;;;;5.75;3.00;;;10.90;99.90;;;;;;4916226;29;20207;-66
2023/01/07 14:15:47;;;;;;;3.35;2.90;;;10.90;99.90;;;;;;4916094;29;20215;-66
2023/01/07 14:18:38;;;;;;;8.27;3.22;;;10.80;99.90;;;;;;4899510;29;20251;-65
2023/01/07 14:21:24;;;;;;;0.95;0.90;;;10.80;99.90;;;;;;4899361;29;20202;-65
2023/01/07 14:24:03;;;;;;;1.25;1.25;;;10.90;99.90;;;;;;4908887;29;20236;-66
2023/01/07 14:26:36;;;;;;;3.85;3.55;;;10.90;99.90;;;;;;4905612;29;20243;-65
2023/01/07 14:29:34;;;;;;;1.98;1.50;;;10.80;99.90;;;;;;4913322;29;20238;-65
2023/01/07 14:32:28;;;;;;;1.27;0.73;;;10.80;99.90;;;;;;4897019;29;20211;-65
2023/01/07 14:35:02;;;;;;;0.68;0.68;;;10.80;99.90;;;;;;4907803;29;20295;-65
2023/01/07 14:37:31;;;;;;;3.13;2.60;;;10.80;99.90;;;;;;4912672;29;20649;-65
2023/01/07 14:39:59;;;;;;;1.95;1.95;;;10.80;99.90;;;;;;4915049;29;20207;-65
2023/01/07 14:42:48;;;;;;;1.30;1.15;;;10.80;99.90;;;;;;4906958;29;20207;-66
2023/01/07 14:45:55;;;;;;;2.65;1.65;;;10.80;99.90;;;;;;4907642;29;20520;-65
2023/01/07 14:48:33;;;;;;;2.45;1.65;;;10.80;99.90;;;;;;4908519;29;20240;-65
2023/01/07 14:51:45;;;;;;;1.08;1.08;;;10.70;99.90;;;;;;4910691;29;20891;-66
2023/01/07 14:54:37;;;;;;;1.10;1.10;;;10.70;99.90;;;;;;4904088;29;20281;-65
2023/01/07 14:57:17;;;;;;;0.90;0.90;;;10.70;99.90;;;;;;4901734;29;20235;-66
2023/01/07 15:00:05;;;;;;;4.60;0.70;;;10.80;99.90;;;;;;4912124;29;20221;-66
2023/01/07 15:03:22;;;;;;;1.30;1.30;;;10.70;99.90;;;;;;4907648;29;20227;-66
2023/01/07 15:05:58;;;;;;;1.23;1.23;;;10.70;99.90;;;;;;4910415;29;20198;-66
2023/01/07 15:17:05;;;;;;;2.42;2.20;;;10.70;99.90;;;;;;4913102;29;20279;-66
2023/01/07 15:19:37;;;;;;;1.52;1.52;;;10.70;99.90;;;;;;4914848;29;20208;-66
2023/01/07 15:22:21;;;;;;;0.88;0.88;;;10.60;99.90;;;;;;4913072;29;20212;-65
2023/01/07 15:24:57;;;;;;;5.30;2.88;;;10.60;99.90;;;;;;4909074;29;20550;-65
2023/01/07 15:27:31;;;;;;;4.53;2.50;;;10.60;99.90;;;;;;4910263;29;20238;-65
2023/01/07 15:30:08;;;;;;;0.90;0.90;;;10.60;99.90;;;;;;4910566;29;20228;-65
2023/01/07 15:32:44;;;;;;;0.65;0.65;;;10.60;99.90;;;;;;4908234;29;20229;-66
2023/01/07 15:35:17;;;;;;;0.63;0.63;;;10.60;99.90;;;;;;4899666;29;20239;-66
2023/01/07 15:37:45;;;;;;;1.02;1.02;;;10.60;99.90;;;;;;4910311;29;20702;-64
2023/01/07 15:40:18;;;;;;;1.60;1.55;;;10.60;99.90;;;;;;4912847;29;20222;-66
2023/01/07 15:42:47;;;;;;;0.82;0.82;;;10.60;99.90;;;;;;4914328;29;20223;-66
2023/01/07 15:45:17;;;;;;;0.77;0.77;;;10.60;99.90;;;;;;4904229;29;20574;-66
2023/01/07 15:47:44;;;;;;;0.60;0.60;;;10.60;99.90;;;;;;4906075;29;20248;-64
2023/01/07 15:50:23;;;;;;;1.23;1.23;;;10.60;99.90;;;;;;4913021;29;20220;-66
2023/01/07 15:52:51;;;;;;;1.02;1.00;;;10.50;99.90;;;;;;4908091;29;20215;-66
2023/01/07 15:55:25;;;;;;;1.52;1.42;;;10.50;99.90;;;;;;4896313;29;20229;-67
2023/01/07 15:57:56;;;;;;;2.35;1.60;;;10.50;99.90;;;;;;4912283;29;20244;-66
2023/01/07 16:00:25;;;;;;;1.50;1.50;;;10.50;99.90;;;;;;4901523;29;20696;-65
2023/01/07 16:02:52;;;;;;;1.52;1.48;;;10.50;99.90;;;;;;4905846;29;20212;-65
2023/01/07 16:05:19;;;;;;;1.77;1.08;;;10.50;99.90;;;;;;4909914;29;20207;-66
2023/01/07 16:07:51;;;;;;;0.30;0.30;;;10.50;99.90;;;;;;4912367;29;20231;-65
2023/01/07 16:10:20;;;;;;;1.85;0.57;;;10.50;99.90;;;;;;4905968;29;20221;-66
2023/01/07 16:12:51;;;;;;;0.50;0.50;;;10.50;99.90;;;;;;4914397;29;20600;-65
2023/01/07 16:15:23;;;;;;;1.05;0.95;;;10.50;99.90;;;;;;4911533;29;20214;-65
2023/01/07 16:17:51;;;;;;;1.17;0.73;;;10.50;99.90;;;;;;4906722;29;20774;-66
2023/01/07 16:20:21;;;;;;;0.75;0.75;;;10.50;99.90;;;;;;4910340;29;20748;-66
2023/01/07 16:22:48;;;;;;;0.85;0.85;;;10.50;99.90;;;;;;4904208;29;20210;-66
2023/01/07 16:25:22;;;;;;;0.90;0.90;;;10.50;99.90;;;;;;4905032;29;20218;-66
2023/01/07 16:27:50;;;;;;;1.00;1.00;;;10.50;99.90;;;;;;4912523;29;20241;-66
2023/01/07 16:30:18;;;;;;;0.80;0.80;;;10.50;99.90;;;;;;4904578;29;20276;-65
2023/01/07 16:32:45;;;;;;;1.45;1.35;;;10.50;99.90;;;;;;4894655;29;20217;-65
2023/01/07 16:35:19;;;;;;;1.20;1.20;;;10.50;99.90;;;;;;4905314;29;20613;-66
2023/01/07 16:37:47;;;;;;;1.20;1.20;;;10.50;99.90;;;;;;4912617;29;20267;-65
2023/01/07 16:40:24;;;;;;;0.60;0.60;;;10.50;99.90;;;;;;4901753;29;20224;-66
2023/01/07 16:42:52;;;;;;;1.30;1.20;;;10.50;99.90;;;;;;4902996;29;20208;-65
2023/01/07 16:45:25;;;;;;;1.40;1.27;;;10.50;99.90;;;;;;4911192;29;20654;-66
2023/01/07 16:48:13;;;;;;;0.80;0.80;;;10.50;99.90;;;;;;4906651;29;20256;-67
2023/01/07 16:50:42;;;;;;;0.40;0.40;;;10.50;99.90;;;;;;4904846;29;20211;-65
2023/01/07 16:53:23;;;;;;;0.60;0.60;;;10.50;99.90;;;;;;4900956;29;20663;-65
2023/01/07 16:55:53;;;;;;;0.43;0.43;;;10.50;99.90;;;;;;4909042;29;20227;-65
2023/01/07 16:58:30;;;;;;;2.50;1.15;;;10.50;99.90;;;;;;4907891;29;20225;-65
2023/01/07 17:00:59;;;;;;;0.65;0.60;;;10.50;99.90;;;;;;4904569;29;20216;-66
2023/01/07 17:03:28;;;;;;;1.70;1.10;;;10.50;99.90;;;;;;4900734;29;20221;-65
2023/01/07 17:06:01;;;;;;;0.80;0.80;;;10.50;99.90;;;;;;4907260;29;20317;-64
2023/01/07 17:08:29;;;;;;;1.88;1.00;;;10.50;99.90;;;;;;4907387;29;20722;-66
2023/01/07 17:11:00;;;;;;;2.72;2.53;;;10.50;99.90;;;;;;4904691;29;20237;-66
2023/01/07 17:13:34;;;;;;;1.63;1.63;;;10.50;99.90;;;;;;4896724;29;20654;-66
2023/01/07 17:16:24;;;;;;;1.25;1.08;;;10.50;99.90;;;;;;4915218;29;20207;-66
2023/01/07 17:18:51;;;;;;;2.40;2.05;;;10.50;99.90;;;;;;4920733;23;20669;-70
2023/01/07 17:21:38;;;;;;;2.80;1.88;;;10.50;99.90;;;;;;4893107;29;20221;-70
2023/01/07 17:24:16;;;;;;;1.20;1.10;;;10.40;99.90;;;;;;4894953;29;20224;-71
2023/01/07 17:26:43;;;;;;;1.83;1.67;;;10.40;99.90;;;;;;4895549;29;20224;-71
2023/01/07 17:29:12;;;;;;;0.88;0.88;;;10.40;99.90;;;;;;4898397;29;20615;-73
2023/01/07 17:31:39;;;;;;;0.75;0.73;;;10.30;99.90;;;;;;4889470;29;20238;-70
2023/01/07 17:34:08;;;;;;;1.77;0.85;;;10.30;99.90;;;;;;4888289;29;20269;-72
2023/01/07 17:36:35;;;;;;;2.58;0.93;;;10.30;99.90;;;;;;4894746;29;20702;-72
2023/01/07 17:39:03;;;;;;;0.50;0.50;;;10.20;99.90;;;;;;4879848;29;20222;-69
2023/01/07 17:44:22;;;;;;;0.80;0.65;;;10.10;99.90;;;;;;4869466;29;20617;-70
2023/01/07 17:46:49;;;;;;;1.38;1.38;;;10.10;99.90;;;;;;4882838;29;20215;-68
2023/01/07 17:49:15;;;;;;;1.20;1.20;;;10.10;99.90;;;;;;4889112;29;20597;-70
2023/01/07 17:51:46;;;;;;;3.00;2.85;;;10.00;99.90;;;;;;4897472;29;20237;-70
2023/01/07 17:54:19;;;;;;;0.20;0.20;;;10.00;99.90;;;;;;4887878;29;20219;-70
2023/01/07 17:56:47;;;;;;;1.58;1.40;;;10.00;99.90;;;;;;4882660;29;20680;-69
2023/01/07 17:59:15;;;;;;;1.02;1.02;;;10.00;99.90;;;;;;4889362;29;20241;-69
2023/01/07 18:01:44;;;;;;;1.13;1.10;;;9.90;99.90;;;;;;4892617;29;20242;-70
2023/01/07 18:04:11;;;;;;;0.82;0.55;;;9.90;99.90;;;;;;4895131;29;20234;-70
2023/01/07 18:06:39;;;;;;;0.70;0.70;;;9.90;99.90;;;;;;4890356;29;20224;-68
2023/01/07 18:09:07;;;;;;;4.68;1.55;;;9.80;99.90;;;;;;4894165;29;20234;-68
2023/01/07 18:14:21;;;;;;;5.18;2.40;;;9.80;99.90;;;;;;4897337;29;20228;-69
2023/01/07 18:16:51;;;;;;;3.38;3.03;;;9.70;99.90;;;;;;4894148;29;20228;-69
2023/01/07 18:19:18;;;;;;;5.60;1.88;;;9.70;99.90;;;;;;4889403;29;20250;-70
2023/01/07 18:21:45;;;;;;;0.73;0.73;;;9.70;99.90;;;;;;4892678;29;20218;-70
2023/01/07 18:24:15;;;;;;;11.93;0.93;;;9.60;99.90;;;;;;4889466;29;20210;-70
2023/01/07 18:26:42;;;;;;;1.15;1.15;;;9.60;99.90;;;;;;4884821;29;20760;-70
2023/01/07 18:29:09;;;;;;;1.38;1.27;;;9.60;99.90;;;;;;4890655;29;20257;-70
2023/01/07 18:31:41;;;;;;;1.20;1.20;;;9.60;99.90;;;;;;4886451;29;20219;-71